sensor_id;sensor_type;location;lat;lon;timestamp;pressure;altitude;pressure_sealevel;temperature;humidity
70833;BME280;58452;59.418;17.962;2023-03-26T00:00:58;99693.38;;;-1.53;80.80
70833;BME280;58452;59.418;17.962;2023-03-26T00:03:23;99680.28;;;-1.60;81.45
70833;BME280;58452;59.418;17.962;2023-03-26T00:06:00;99682.91;;;-1.47;81.25
70833;BME280;58452;59.418;17.962;2023-03-26T00:08:27;99691.03;;;-1.42;80.30
70833;BME280;58452;59.418;17.962;2023-03-26T00:10:52;99691.22;;;-1.45;80.36
70833;BME280;58452;59.418;17.962;2023-03-26T00:13:18;99691.41;;;-1.62;80.66
70833;BME280;58452;59.418;17.962;2023-03-26T00:15:43;99693.38;;;-1.81;81.47
70833;BME280;58452;59.418;17.962;2023-03-26T00:18:09;99701.16;;;-1.70;81.37
70833;BME280;58452;59.418;17.962;2023-03-26T00:20:34;99700.16;;;-1.68;81.87
70833;BME280;58452;59.418;17.962;2023-03-26T00:22:59;99697.09;;;-1.73;81.59
70833;BME280;58452;59.418;17.962;2023-03-26T00:25:28;99694.00;;;-1.78;82.07
70833;BME280;58452;59.418;17.962;2023-03-26T00:27:53;99701.16;;;-1.70;81.80
70833;BME280;58452;59.418;17.962;2023-03-26T00:30:19;99699.00;;;-1.62;81.75
70833;BME280;58452;59.418;17.962;2023-03-26T00:32:45;99694.03;;;-1.64;81.66
70833;BME280;58452;59.418;17.962;2023-03-26T00:35:10;99699.72;;;-1.60;81.50
70833;BME280;58452;59.418;17.962;2023-03-26T00:37:37;99692.50;;;-1.66;81.40
70833;BME280;58452;59.418;17.962;2023-03-26T00:40:03;99694.13;;;-1.65;81.34
70833;BME280;58452;59.418;17.962;2023-03-26T00:42:32;99686.81;;;-1.70;82.04
70833;BME280;58452;59.418;17.962;2023-03-26T00:44:58;99694.13;;;-1.65;81.15
70833;BME280;58452;59.418;17.962;2023-03-26T00:47:26;99685.97;;;-1.70;81.32
70833;BME280;58452;59.418;17.962;2023-03-26T00:49:53;99680.38;;;-1.61;81.57
70833;BME280;58452;59.418;17.962;2023-03-26T00:52:18;99688.41;;;-1.69;80.96
70833;BME280;58452;59.418;17.962;2023-03-26T00:54:45;99684.97;;;-1.68;81.18
70833;BME280;58452;59.418;17.962;2023-03-26T00:57:11;99683.44;;;-1.84;81.48
70833;BME280;58452;59.418;17.962;2023-03-26T00:59:38;99687.97;;;-1.75;81.41
70833;BME280;58452;59.418;17.962;2023-03-26T01:02:04;99684.91;;;-1.66;80.95
70833;BME280;58452;59.418;17.962;2023-03-26T01:04:33;99690.66;;;-1.64;80.80
70833;BME280;58452;59.418;17.962;2023-03-26T01:07:09;99689.41;;;-1.71;81.12
70833;BME280;58452;59.418;17.962;2023-03-26T01:09:38;99696.09;;;-1.70;81.15
70833;BME280;58452;59.418;17.962;2023-03-26T01:12:10;99698.81;;;-1.87;81.03
70833;BME280;58452;59.418;17.962;2023-03-26T01:14:38;99692.81;;;-1.86;82.06
70833;BME280;58452;59.418;17.962;2023-03-26T01:17:05;99698.06;;;-1.75;81.31
70833;BME280;58452;59.418;17.962;2023-03-26T01:19:52;99695.66;;;-1.77;81.06
70833;BME280;58452;59.418;17.962;2023-03-26T01:22:21;99691.56;;;-1.79;81.26
70833;BME280;58452;59.418;17.962;2023-03-26T01:24:47;99696.38;;;-1.75;81.48
70833;BME280;58452;59.418;17.962;2023-03-26T01:30:07;99693.66;;;-1.72;81.28
70833;BME280;58452;59.418;17.962;2023-03-26T01:32:53;99694.19;;;-1.67;81.03
70833;BME280;58452;59.418;17.962;2023-03-26T01:35:43;99696.66;;;-1.65;81.64
70833;BME280;58452;59.418;17.962;2023-03-26T01:43:57;99700.34;;;-1.71;80.92
70833;BME280;58452;59.418;17.962;2023-03-26T01:46:25;99700.78;;;-1.64;80.97
70833;BME280;58452;59.418;17.962;2023-03-26T01:48:51;99703.88;;;-1.59;80.36
70833;BME280;58452;59.418;17.962;2023-03-26T01:51:34;99701.59;;;-1.64;80.96
70833;BME280;58452;59.418;17.962;2023-03-26T01:54:01;99702.41;;;-1.63;80.66
70833;BME280;58452;59.418;17.962;2023-03-26T02:02:40;99708.19;;;-1.75;81.99
70833;BME280;58452;59.418;17.962;2023-03-26T02:05:20;99714.38;;;-1.65;81.95
70833;BME280;58452;59.418;17.962;2023-03-26T02:08:13;99703.50;;;-1.67;81.20
70833;BME280;58452;59.418;17.962;2023-03-26T02:10:44;99699.19;;;-1.65;80.93
70833;BME280;58452;59.418;17.962;2023-03-26T02:13:10;99706.94;;;-1.68;81.20
70833;BME280;58452;59.418;17.962;2023-03-26T02:15:43;99696.19;;;-1.58;81.61
70833;BME280;58452;59.418;17.962;2023-03-26T02:18:18;99698.44;;;-1.53;81.33
70833;BME280;58452;59.418;17.962;2023-03-26T02:20:48;99692.75;;;-1.57;80.80
70833;BME280;58452;59.418;17.962;2023-03-26T02:23:18;99696.19;;;-1.58;81.03
70833;BME280;58452;59.418;17.962;2023-03-26T02:25:43;99696.72;;;-1.53;81.04
70833;BME280;58452;59.418;17.962;2023-03-26T02:28:09;99697.00;;;-1.57;80.11
70833;BME280;58452;59.418;17.962;2023-03-26T02:30:34;99701.78;;;-1.53;80.62
70833;BME280;58452;59.418;17.962;2023-03-26T02:32:59;99705.13;;;-1.52;80.44
70833;BME280;58452;59.418;17.962;2023-03-26T02:35:25;99698.25;;;-1.50;80.85
70833;BME280;58452;59.418;17.962;2023-03-26T02:37:50;99698.53;;;-1.40;80.08
70833;BME280;58452;59.418;17.962;2023-03-26T02:40:17;99705.50;;;-1.44;80.49
70833;BME280;58452;59.418;17.962;2023-03-26T02:42:43;99706.78;;;-1.51;80.53
70833;BME280;58452;59.418;17.962;2023-03-26T02:45:09;99706.94;;;-1.68;80.92
70833;BME280;58452;59.418;17.962;2023-03-26T02:47:35;99704.75;;;-1.74;81.48
70833;BME280;58452;59.418;17.962;2023-03-26T02:50:01;99704.69;;;-1.59;81.85
70833;BME280;58452;59.418;17.962;2023-03-26T02:52:28;99707.28;;;-1.60;81.29
70833;BME280;58452;59.418;17.962;2023-03-26T02:54:53;99710.28;;;-1.54;81.44
70833;BME280;58452;59.418;17.962;2023-03-26T02:57:19;99710.38;;;-1.55;80.70
70833;BME280;58452;59.418;17.962;2023-03-26T02:59:45;99714.25;;;-1.64;81.01
70833;BME280;58452;59.418;17.962;2023-03-26T03:02:11;99710.19;;;-1.52;81.11
70833;BME280;58452;59.418;17.962;2023-03-26T03:04:37;99713.09;;;-1.44;81.30
70833;BME280;58452;59.418;17.962;2023-03-26T03:07:03;99712.28;;;-1.59;81.69
70833;BME280;58452;59.418;17.962;2023-03-26T03:09:29;99712.91;;;-1.55;80.93
70833;BME280;58452;59.418;17.962;2023-03-26T03:11:55;99724.81;;;-1.57;81.63
70833;BME280;58452;59.418;17.962;2023-03-26T03:14:20;99724.56;;;-1.53;81.43
70833;BME280;58452;59.418;17.962;2023-03-26T03:16:46;99724.28;;;-1.48;81.24
70833;BME280;58452;59.418;17.962;2023-03-26T03:19:12;99714.00;;;-1.59;81.85
70833;BME280;58452;59.418;17.962;2023-03-26T03:21:38;99720.88;;;-1.47;81.91
70833;BME280;58452;59.418;17.962;2023-03-26T03:24:03;99708.28;;;-1.34;81.29
70833;BME280;58452;59.418;17.962;2023-03-26T03:26:29;99719.41;;;-1.37;80.73
70833;BME280;58452;59.418;17.962;2023-03-26T03:28:56;99718.69;;;-1.53;81.71
70833;BME280;58452;59.418;17.962;2023-03-26T03:31:23;99709.81;;;-1.46;81.84
70833;BME280;58452;59.418;17.962;2023-03-26T03:33:50;99724.81;;;-1.43;81.80
70833;BME280;58452;59.418;17.962;2023-03-26T03:36:17;99724.28;;;-1.34;81.41
70833;BME280;58452;59.418;17.962;2023-03-26T03:38:43;99716.13;;;-1.39;81.57
70833;BME280;58452;59.418;17.962;2023-03-26T03:41:09;99720.03;;;-1.33;81.30
70833;BME280;58452;59.418;17.962;2023-03-26T03:43:35;99721.38;;;-1.42;81.56
70833;BME280;58452;59.418;17.962;2023-03-26T03:46:01;99709.28;;;-1.37;81.33
70833;BME280;58452;59.418;17.962;2023-03-26T03:48:26;99720.94;;;-1.34;81.62
70833;BME280;58452;59.418;17.962;2023-03-26T03:50:53;99721.75;;;-1.34;81.75
70833;BME280;58452;59.418;17.962;2023-03-26T03:53:19;99714.88;;;-1.32;81.61
70833;BME280;58452;59.418;17.962;2023-03-26T03:55:45;99715.78;;;-1.33;81.81
70833;BME280;58452;59.418;17.962;2023-03-26T03:58:24;99714.88;;;-1.32;82.29
70833;BME280;58452;59.418;17.962;2023-03-26T04:00:53;99713.34;;;-1.34;81.42
70833;BME280;58452;59.418;17.962;2023-03-26T04:03:26;99713.78;;;-1.28;82.25
70833;BME280;58452;59.418;17.962;2023-03-26T04:05:54;99710.94;;;-1.36;81.55
70833;BME280;58452;59.418;17.962;2023-03-26T04:08:21;99712.19;;;-1.29;82.07
70833;BME280;58452;59.418;17.962;2023-03-26T04:10:47;99718.50;;;-1.22;81.43
70833;BME280;58452;59.418;17.962;2023-03-26T04:13:14;99723.88;;;-1.14;81.60
70833;BME280;58452;59.418;17.962;2023-03-26T04:15:41;99722.13;;;-1.26;81.07
70833;BME280;58452;59.418;17.962;2023-03-26T04:18:07;99720.28;;;-1.24;81.90
70833;BME280;58452;59.418;17.962;2023-03-26T04:20:40;99735.31;;;-1.35;81.53
70833;BME280;58452;59.418;17.962;2023-03-26T04:23:17;99737.13;;;-1.37;81.97
70833;BME280;58452;59.418;17.962;2023-03-26T04:25:49;99734.94;;;-1.43;82.26
70833;BME280;58452;59.418;17.962;2023-03-26T04:28:32;99729.34;;;-1.34;82.53
70833;BME280;58452;59.418;17.962;2023-03-26T04:31:00;99739.28;;;-1.31;82.30
70833;BME280;58452;59.418;17.962;2023-03-26T04:33:31;99739.91;;;-1.27;82.62
70833;BME280;58452;59.418;17.962;2023-03-26T04:35:58;99733.59;;;-1.34;82.43
70833;BME280;58452;59.418;17.962;2023-03-26T04:38:28;99738.03;;;-1.38;82.82
70833;BME280;58452;59.418;17.962;2023-03-26T04:40:54;99730.81;;;-1.44;82.93
70833;BME280;58452;59.418;17.962;2023-03-26T04:43:24;99735.75;;;-1.42;83.28
70833;BME280;58452;59.418;17.962;2023-03-26T04:45:50;99732.78;;;-1.35;82.99
70833;BME280;58452;59.418;17.962;2023-03-26T04:48:17;99735.84;;;-1.30;82.88
70833;BME280;58452;59.418;17.962;2023-03-26T04:50:45;99733.59;;;-1.34;83.04
70833;BME280;58452;59.418;17.962;2023-03-26T04:53:14;99731.16;;;-1.36;82.75
70833;BME280;58452;59.418;17.962;2023-03-26T04:55:48;99733.88;;;-1.25;83.18
70833;BME280;58452;59.418;17.962;2023-03-26T04:58:16;99717.50;;;-1.19;82.43
70833;BME280;58452;59.418;17.962;2023-03-26T05:00:41;99723.91;;;-1.28;82.34
70833;BME280;58452;59.418;17.962;2023-03-26T05:03:10;99730.16;;;-1.19;82.10
70833;BME280;58452;59.418;17.962;2023-03-26T05:05:36;99728.88;;;-1.12;82.49
70833;BME280;58452;59.418;17.962;2023-03-26T05:08:02;99724.19;;;-1.18;82.13
70833;BME280;58452;59.418;17.962;2023-03-26T05:10:27;99734.41;;;-1.34;83.03
70833;BME280;58452;59.418;17.962;2023-03-26T05:12:53;99735.66;;;-1.27;82.54
70833;BME280;58452;59.418;17.962;2023-03-26T05:15:18;99732.59;;;-1.18;82.83
70833;BME280;58452;59.418;17.962;2023-03-26T05:17:44;99734.56;;;-1.09;82.30
70833;BME280;58452;59.418;17.962;2023-03-26T05:20:27;99731.94;;;-1.07;82.39
70833;BME280;58452;59.418;17.962;2023-03-26T05:22:54;99726.06;;;-1.08;81.61
70833;BME280;58452;59.418;17.962;2023-03-26T05:25:19;99738.44;;;-1.17;82.13
70833;BME280;58452;59.418;17.962;2023-03-26T05:27:45;99738.44;;;-1.17;81.93
70833;BME280;58452;59.418;17.962;2023-03-26T05:30:16;99743.59;;;-1.05;82.09
70833;BME280;58452;59.418;17.962;2023-03-26T05:32:42;99743.59;;;-1.05;81.58
70833;BME280;58452;59.418;17.962;2023-03-26T05:35:07;99746.94;;;-1.04;81.81
70833;BME280;58452;59.418;17.962;2023-03-26T05:37:33;99742.69;;;-1.04;82.12
70833;BME280;58452;59.418;17.962;2023-03-26T05:39:59;99746.69;;;-1.00;82.06
70833;BME280;58452;59.418;17.962;2023-03-26T05:42:25;99736.34;;;-0.96;80.92
70833;BME280;58452;59.418;17.962;2023-03-26T05:44:51;99743.41;;;-1.02;81.10
70833;BME280;58452;59.418;17.962;2023-03-26T05:47:16;99751.00;;;-1.02;80.60
70833;BME280;58452;59.418;17.962;2023-03-26T05:49:42;99749.84;;;-0.96;81.33
70833;BME280;58452;59.418;17.962;2023-03-26T05:52:07;99746.38;;;-0.95;80.50
70833;BME280;58452;59.418;17.962;2023-03-26T05:54:33;99747.38;;;-0.98;80.65
70833;BME280;58452;59.418;17.962;2023-03-26T05:57:00;99745.75;;;-0.99;80.65
70833;BME280;58452;59.418;17.962;2023-03-26T05:59:25;99744.78;;;-0.96;80.45
70833;BME280;58452;59.418;17.962;2023-03-26T06:01:51;99741.47;;;-0.84;80.02
70833;BME280;58452;59.418;17.962;2023-03-26T06:04:19;99743.84;;;-0.81;79.69
70833;BME280;58452;59.418;17.962;2023-03-26T06:06:45;99744.00;;;-0.84;79.85
70833;BME280;58452;59.418;17.962;2023-03-26T06:09:10;99741.16;;;-0.92;79.33
70833;BME280;58452;59.418;17.962;2023-03-26T06:11:37;99740.53;;;-0.95;79.09
70833;BME280;58452;59.418;17.962;2023-03-26T06:14:04;99740.69;;;-0.99;79.38
70833;BME280;58452;59.418;17.962;2023-03-26T06:16:30;99740.34;;;-0.92;78.10
70833;BME280;58452;59.418;17.962;2023-03-26T06:18:55;99744.78;;;-0.96;78.43
70833;BME280;58452;59.418;17.962;2023-03-26T06:21:21;99747.56;;;-1.01;79.74
70833;BME280;58452;59.418;17.962;2023-03-26T06:23:47;99740.53;;;-0.95;79.67
70833;BME280;58452;59.418;17.962;2023-03-26T06:26:13;99747.34;;;-0.83;79.63
70833;BME280;58452;59.418;17.962;2023-03-26T06:28:39;99742.09;;;-0.80;79.62
70833;BME280;58452;59.418;17.962;2023-03-26T06:31:05;99741.94;;;-0.77;79.30
70833;BME280;58452;59.418;17.962;2023-03-26T06:33:31;99750.91;;;-0.86;79.24
70833;BME280;58452;59.418;17.962;2023-03-26T06:35:57;99758.03;;;-0.78;79.56
70833;BME280;58452;59.418;17.962;2023-03-26T06:38:23;99751.41;;;-0.67;79.78
70833;BME280;58452;59.418;17.962;2023-03-26T06:40:48;99750.94;;;-0.59;79.42
70833;BME280;58452;59.418;17.962;2023-03-26T06:43:14;99752.44;;;-0.57;79.19
70833;BME280;58452;59.418;17.962;2023-03-26T06:45:39;99754.75;;;-0.66;79.34
70833;BME280;58452;59.418;17.962;2023-03-26T06:48:05;99760.59;;;-0.66;78.53
70833;BME280;58452;59.418;17.962;2023-03-26T06:50:31;99769.94;;;-0.80;78.24
70833;BME280;58452;59.418;17.962;2023-03-26T06:52:57;99767.53;;;-0.82;79.08
70833;BME280;58452;59.418;17.962;2023-03-26T06:55:23;99765.34;;;-0.74;78.63
70833;BME280;58452;59.418;17.962;2023-03-26T06:57:52;99773.56;;;-0.84;79.29
70833;BME280;58452;59.418;17.962;2023-03-26T07:00:19;99767.59;;;-0.69;79.31
70833;BME280;58452;59.418;17.962;2023-03-26T07:02:45;99776.25;;;-0.59;78.86
70833;BME280;58452;59.418;17.962;2023-03-26T07:05:11;99776.97;;;-0.57;78.86
70833;BME280;58452;59.418;17.962;2023-03-26T07:07:36;99768.81;;;-0.62;78.65
70833;BME280;58452;59.418;17.962;2023-03-26T07:10:03;99771.69;;;-0.54;78.53
70833;BME280;58452;59.418;17.962;2023-03-26T07:12:29;99775.16;;;-0.55;78.29
70833;BME280;58452;59.418;17.962;2023-03-26T07:14:54;99772.78;;;-0.58;77.98
70833;BME280;58452;59.418;17.962;2023-03-26T07:17:19;99772.59;;;-0.41;78.29
70833;BME280;58452;59.418;17.962;2023-03-26T07:19:45;99769.09;;;-0.53;77.67
70833;BME280;58452;59.418;17.962;2023-03-26T07:22:20;99778.22;;;-0.50;78.26
70833;BME280;58452;59.418;17.962;2023-03-26T07:24:46;99770.47;;;-0.34;77.42
70833;BME280;58452;59.418;17.962;2023-03-26T07:32:37;99780.78;;;-0.64;77.45
70833;BME280;58452;59.418;17.962;2023-03-26T07:45:47;99781.09;;;-0.42;77.41
70833;BME280;58452;59.418;17.962;2023-03-26T07:48:22;99793.47;;;-0.37;77.11
70833;BME280;58452;59.418;17.962;2023-03-26T07:50:52;99781.00;;;-0.40;77.21
70833;BME280;58452;59.418;17.962;2023-03-26T07:53:19;99794.09;;;-0.34;76.96
70833;BME280;58452;59.418;17.962;2023-03-26T08:01:19;99788.09;;;-0.06;76.68
70833;BME280;58452;59.418;17.962;2023-03-26T08:20:45;99790.28;;;-0.14;75.72
70833;BME280;58452;59.418;17.962;2023-03-26T08:23:07;99802.88;;;-0.13;76.89
70833;BME280;58452;59.418;17.962;2023-03-26T08:31:10;99796.69;;;0.18;74.96
70833;BME280;58452;59.418;17.962;2023-03-26T08:33:37;99800.53;;;0.24;75.22
70833;BME280;58452;59.418;17.962;2023-03-26T08:36:05;99803.81;;;0.38;74.91
70833;BME280;58452;59.418;17.962;2023-03-26T08:38:31;99796.47;;;0.21;74.70
70833;BME280;58452;59.418;17.962;2023-03-26T08:47:09;99808.72;;;0.02;75.89
70833;BME280;58452;59.418;17.962;2023-03-26T08:58:24;99806.13;;;0.29;75.97
70833;BME280;58452;59.418;17.962;2023-03-26T09:01:19;99803.19;;;0.35;74.99
70833;BME280;58452;59.418;17.962;2023-03-26T09:15:31;99803.84;;;0.12;76.90
70833;BME280;58452;59.418;17.962;2023-03-26T09:25:21;99805.19;;;0.17;76.00
70833;BME280;58452;59.418;17.962;2023-03-26T09:38:43;99811.66;;;0.09;77.31
70833;BME280;58452;59.418;17.962;2023-03-26T09:46:44;99813.09;;;0.00;78.12
70833;BME280;58452;59.418;17.962;2023-03-26T09:52:17;99812.13;;;-0.12;78.53
70833;BME280;58452;59.418;17.962;2023-03-26T10:11:13;99827.28;;;0.03;77.92
70833;BME280;58452;59.418;17.962;2023-03-26T10:19:14;99826.44;;;0.29;77.54
70833;BME280;58452;59.418;17.962;2023-03-26T10:24:18;99829.78;;;0.42;76.72
70833;BME280;58452;59.418;17.962;2023-03-26T10:37:20;99827.75;;;0.34;76.86
70833;BME280;58452;59.418;17.962;2023-03-26T10:40:14;99828.56;;;0.35;77.32
70833;BME280;58452;59.418;17.962;2023-03-26T10:42:54;99830.53;;;0.44;76.47
70833;BME280;58452;59.418;17.962;2023-03-26T10:53:11;99839.69;;;0.20;78.22
70833;BME280;58452;59.418;17.962;2023-03-26T10:55:51;99839.91;;;0.17;77.35
70833;BME280;58452;59.418;17.962;2023-03-26T10:58:25;99842.97;;;0.22;77.75
70833;BME280;58452;59.418;17.962;2023-03-26T11:01:02;99839.97;;;0.15;77.75
70833;BME280;58452;59.418;17.962;2023-03-26T11:08:51;99834.53;;;0.34;76.34
70833;BME280;58452;59.418;17.962;2023-03-26T11:11:27;99845.44;;;0.36;77.35
70833;BME280;58452;59.418;17.962;2023-03-26T11:19:40;99836.72;;;0.65;75.50
70833;BME280;58452;59.418;17.962;2023-03-26T11:33:06;99844.25;;;0.79;72.31
70833;BME280;58452;59.418;17.962;2023-03-26T11:35:35;99841.38;;;0.96;73.01
70833;BME280;58452;59.418;17.962;2023-03-26T11:38:08;99839.56;;;0.98;72.74
70833;BME280;58452;59.418;17.962;2023-03-26T11:40:39;99842.59;;;1.04;71.47
70833;BME280;58452;59.418;17.962;2023-03-26T11:43:11;99847.47;;;1.07;71.56
70833;BME280;58452;59.418;17.962;2023-03-26T11:45:41;99852.88;;;1.02;71.38
70833;BME280;58452;59.418;17.962;2023-03-26T11:51:06;99852.75;;;1.04;71.08
70833;BME280;58452;59.418;17.962;2023-03-26T11:53:34;99841.56;;;1.19;70.47
70833;BME280;58452;59.418;17.962;2023-03-26T11:56:12;99845.22;;;1.15;70.58
70833;BME280;58452;59.418;17.962;2023-03-26T11:58:50;99846.22;;;1.25;69.64
70833;BME280;58452;59.418;17.962;2023-03-26T12:01:26;99839.31;;;1.14;69.28
70833;BME280;58452;59.418;17.962;2023-03-26T12:04:11;99841.34;;;1.22;68.15
70833;BME280;58452;59.418;17.962;2023-03-26T12:06:38;99842.47;;;1.30;68.62
70833;BME280;58452;59.418;17.962;2023-03-26T12:09:10;99847.06;;;1.13;69.33
70833;BME280;58452;59.418;17.962;2023-03-26T12:11:40;99841.09;;;1.14;67.97
70833;BME280;58452;59.418;17.962;2023-03-26T12:14:06;99848.06;;;1.23;68.43
70833;BME280;58452;59.418;17.962;2023-03-26T12:16:33;99844.56;;;1.36;68.21
70833;BME280;58452;59.418;17.962;2023-03-26T12:19:18;99841.28;;;1.47;68.23
70833;BME280;58452;59.418;17.962;2023-03-26T12:21:48;99848.38;;;1.67;67.54
70833;BME280;58452;59.418;17.962;2023-03-26T12:24:30;99844.47;;;1.74;67.66
70833;BME280;58452;59.418;17.962;2023-03-26T12:27:01;99851.31;;;1.98;68.16
70833;BME280;58452;59.418;17.962;2023-03-26T12:29:28;99849.50;;;2.11;66.49
70833;BME280;58452;59.418;17.962;2023-03-26T12:32:12;99854.81;;;2.08;66.04
70833;BME280;58452;59.418;17.962;2023-03-26T12:34:38;99847.53;;;2.14;65.69
70833;BME280;58452;59.418;17.962;2023-03-26T12:37:06;99850.00;;;1.92;64.47
70833;BME280;58452;59.418;17.962;2023-03-26T12:39:37;99851.94;;;1.88;65.23
70833;BME280;58452;59.418;17.962;2023-03-26T12:42:05;99851.03;;;1.89;65.29
70833;BME280;58452;59.418;17.962;2023-03-26T12:44:50;99851.94;;;1.88;64.95
70833;BME280;58452;59.418;17.962;2023-03-26T12:47:18;99853.94;;;1.72;64.82
70833;BME280;58452;59.418;17.962;2023-03-26T12:49:45;99863.97;;;1.86;65.29
70833;BME280;58452;59.418;17.962;2023-03-26T12:57:36;99851.59;;;1.69;65.61
70833;BME280;58452;59.418;17.962;2023-03-26T13:13:53;99850.03;;;1.56;64.35
70833;BME280;58452;59.418;17.962;2023-03-26T13:19:05;99864.13;;;1.72;65.23
70833;BME280;58452;59.418;17.962;2023-03-26T13:27:46;99864.88;;;1.85;63.71
70833;BME280;58452;59.418;17.962;2023-03-26T13:38:55;99871.31;;;1.42;64.05
70833;BME280;58452;59.418;17.962;2023-03-26T13:42:02;99867.56;;;1.35;63.95
70833;BME280;58452;59.418;17.962;2023-03-26T13:47:28;99862.09;;;1.16;64.51
70833;BME280;58452;59.418;17.962;2023-03-26T13:53:08;99866.84;;;1.33;63.49
70833;BME280;58452;59.418;17.962;2023-03-26T14:01:00;99874.69;;;1.30;63.53
70833;BME280;58452;59.418;17.962;2023-03-26T14:03:50;99870.13;;;1.35;63.39
70833;BME280;58452;59.418;17.962;2023-03-26T14:06:40;99878.31;;;1.51;63.11
70833;BME280;58452;59.418;17.962;2023-03-26T14:14:38;99875.28;;;1.33;62.63
70833;BME280;58452;59.418;17.962;2023-03-26T14:26:13;99877.56;;;1.13;64.31
70833;BME280;58452;59.418;17.962;2023-03-26T14:29:06;99879.78;;;1.05;64.40
70833;BME280;58452;59.418;17.962;2023-03-26T14:32:08;99886.69;;;1.15;63.94
70833;BME280;58452;59.418;17.962;2023-03-26T14:34:56;99890.28;;;1.13;63.06
70833;BME280;58452;59.418;17.962;2023-03-26T14:40:28;99889.75;;;1.08;64.02
70833;BME280;58452;59.418;17.962;2023-03-26T14:54:25;99886.38;;;0.57;62.50
70833;BME280;58452;59.418;17.962;2023-03-26T15:11:42;99887.69;;;0.49;62.68
70833;BME280;58452;59.418;17.962;2023-03-26T15:27:41;99903.41;;;0.15;63.64
70833;BME280;58452;59.418;17.962;2023-03-26T15:30:28;99908.94;;;0.22;64.96
70833;BME280;58452;59.418;17.962;2023-03-26T15:41:30;99918.19;;;0.09;65.13
70833;BME280;58452;59.418;17.962;2023-03-26T16:15:29;99954.59;;;-0.47;65.35
70833;BME280;58452;59.418;17.962;2023-03-26T16:20:51;99959.97;;;-0.38;65.12
70833;BME280;58452;59.418;17.962;2023-03-26T16:23:26;99958.69;;;-0.45;64.94
70833;BME280;58452;59.418;17.962;2023-03-26T16:26:14;99962.13;;;-0.46;65.43
70833;BME280;58452;59.418;17.962;2023-03-26T16:38:46;99963.72;;;-0.73;66.96
70833;BME280;58452;59.418;17.962;2023-03-26T16:41:16;99971.53;;;-0.62;67.00
70833;BME280;58452;59.418;17.962;2023-03-26T16:50:25;99978.03;;;-0.58;68.07
70833;BME280;58452;59.418;17.962;2023-03-26T16:55:27;99985.63;;;-0.72;67.88
70833;BME280;58452;59.418;17.962;2023-03-26T17:03:59;99963.47;;;-0.69;69.06
70833;BME280;58452;59.418;17.962;2023-03-26T17:06:39;99962.66;;;-0.69;69.33
70833;BME280;58452;59.418;17.962;2023-03-26T17:12:11;99968.81;;;-0.73;68.89
70833;BME280;58452;59.418;17.962;2023-03-26T17:41:01;99989.16;;;-1.19;69.63
70833;BME280;58452;59.418;17.962;2023-03-26T17:49:12;99976.34;;;-1.02;69.13
70833;BME280;58452;59.418;17.962;2023-03-26T17:51:58;99980.28;;;-0.96;70.00
70833;BME280;58452;59.418;17.962;2023-03-26T17:54:30;99970.59;;;-1.04;70.45
70833;BME280;58452;59.418;17.962;2023-03-26T17:57:02;99972.75;;;-0.98;69.99
70833;BME280;58452;59.418;17.962;2023-03-26T17:59:31;99980.81;;;-0.91;69.90
70833;BME280;58452;59.418;17.962;2023-03-26T18:01:59;99968.06;;;-1.04;70.14
70833;BME280;58452;59.418;17.962;2023-03-26T18:04:34;99975.28;;;-0.98;70.70
70833;BME280;58452;59.418;17.962;2023-03-26T18:13:01;99955.50;;;-1.21;70.70
70833;BME280;58452;59.418;17.962;2023-03-26T18:18:17;99959.16;;;-1.25;71.33
70833;BME280;58452;59.418;17.962;2023-03-26T18:20:46;99967.53;;;-1.24;70.56
70833;BME280;58452;59.418;17.962;2023-03-26T18:23:25;99967.06;;;-1.31;70.96
70833;BME280;58452;59.418;17.962;2023-03-26T18:26:12;99975.19;;;-1.40;71.30
70833;BME280;58452;59.418;17.962;2023-03-26T18:28:42;99969.38;;;-1.42;70.93
70833;BME280;58452;59.418;17.962;2023-03-26T18:31:16;99983.31;;;-1.35;71.10
70833;BME280;58452;59.418;17.962;2023-03-26T18:33:44;99985.84;;;-1.35;70.96
70833;BME280;58452;59.418;17.962;2023-03-26T18:36:13;99983.25;;;-1.49;71.68
70833;BME280;58452;59.418;17.962;2023-03-26T18:38:39;99987.66;;;-1.37;71.06
70833;BME280;58452;59.418;17.962;2023-03-26T18:41:06;99979.31;;;-1.39;70.58
70833;BME280;58452;59.418;17.962;2023-03-26T18:43:38;99973.13;;;-1.49;71.63
70833;BME280;58452;59.418;17.962;2023-03-26T18:46:04;99986.19;;;-1.41;71.86
70833;BME280;58452;59.418;17.962;2023-03-26T18:48:29;99980.84;;;-1.51;71.58
70833;BME280;58452;59.418;17.962;2023-03-26T18:51:03;99979.59;;;-1.59;72.29
70833;BME280;58452;59.418;17.962;2023-03-26T18:53:35;99986.13;;;-1.55;72.75
70833;BME280;58452;59.418;17.962;2023-03-26T18:58:49;99981.00;;;-1.69;71.92
70833;BME280;58452;59.418;17.962;2023-03-26T19:01:16;99982.13;;;-1.59;71.98
70833;BME280;58452;59.418;17.962;2023-03-26T19:03:42;99975.22;;;-1.71;72.36
70833;BME280;58452;59.418;17.962;2023-03-26T19:06:12;99975.44;;;-1.60;71.99
70833;BME280;58452;59.418;17.962;2023-03-26T19:08:40;99972.50;;;-1.68;72.01
70833;BME280;58452;59.418;17.962;2023-03-26T19:11:08;99981.00;;;-1.69;72.55
70833;BME280;58452;59.418;17.962;2023-03-26T19:13:37;99984.25;;;-1.67;71.89
70833;BME280;58452;59.418;17.962;2023-03-26T19:16:07;99994.13;;;-1.78;72.25
70833;BME280;58452;59.418;17.962;2023-03-26T19:18:39;99990.47;;;-1.73;72.53
70833;BME280;58452;59.418;17.962;2023-03-26T19:21:06;99988.34;;;-1.80;71.57
70833;BME280;58452;59.418;17.962;2023-03-26T19:23:36;99983.53;;;-1.69;72.02
70833;BME280;58452;59.418;17.962;2023-03-26T19:26:05;99982.72;;;-1.70;71.44
70833;BME280;58452;59.418;17.962;2023-03-26T19:28:37;99982.63;;;-1.68;71.35
70833;BME280;58452;59.418;17.962;2023-03-26T19:31:09;99984.25;;;-1.67;71.59
70833;BME280;58452;59.418;17.962;2023-03-26T19:33:39;99987.38;;;-1.62;70.89
70833;BME280;58452;59.418;17.962;2023-03-26T19:36:19;99988.50;;;-1.83;71.40
70833;BME280;58452;59.418;17.962;2023-03-26T19:43:53;99984.13;;;-1.80;71.25
70833;BME280;58452;59.418;17.962;2023-03-26T19:46:24;99986.25;;;-1.88;71.55
70833;BME280;58452;59.418;17.962;2023-03-26T19:48:52;99982.53;;;-1.98;71.58
70833;BME280;58452;59.418;17.962;2023-03-26T19:51:21;99984.84;;;-1.93;72.30